createdAt,value
2019-02-17T00:00:38.913Z,71.66
2019-02-17T00:03:07.444Z,71.51
2019-02-17T00:05:35.909Z,71.29
2019-02-17T00:08:04.405Z,71.29
2019-02-17T00:10:32.854Z,71.58
2019-02-17T00:13:01.312Z,71.73
2019-02-17T00:15:29.856Z,71.64
2019-02-17T00:17:58.308Z,71.72
2019-02-17T00:20:26.767Z,71.80
2019-02-17T00:22:55.247Z,72.31
2019-02-17T00:25:23.700Z,72.31
2019-02-17T00:27:52.158Z,72.14
2019-02-17T00:30:20.662Z,72.16
2019-02-17T00:32:49.130Z,72.21
2019-02-17T00:35:17.589Z,72.04
2019-02-17T00:37:46.077Z,72.09
2019-02-17T00:40:14.534Z,71.74
2019-02-17T00:42:42.998Z,71.74
2019-02-17T00:45:11.653Z,72.16
2019-02-17T00:47:40.172Z,72.36
2019-02-17T00:50:09.689Z,72.34
2019-02-17T00:52:38.191Z,72.46
2019-02-17T00:55:08.266Z,72.46
2019-02-17T00:57:36.725Z,72.54
2019-02-17T01:00:11.127Z,72.81
2019-02-17T01:02:39.591Z,72.78
2019-02-17T01:05:08.052Z,72.70
2019-02-17T01:07:36.549Z,72.70
2019-02-17T01:10:06.943Z,72.75
2019-02-17T01:12:35.405Z,72.78
2019-02-17T01:15:05.053Z,72.71
2019-02-17T01:17:33.504Z,72.50
2019-02-17T01:20:01.970Z,72.21
2019-02-17T01:22:30.456Z,72.55
2019-02-17T01:24:58.941Z,72.55
2019-02-17T01:27:27.391Z,72.50
2019-02-17T01:29:55.878Z,72.60
2019-02-17T01:32:24.334Z,72.68
2019-02-17T01:34:52.801Z,72.69
2019-02-17T01:37:21.303Z,72.80
2019-02-17T01:39:53.315Z,72.80
2019-02-17T01:42:21.772Z,72.76
2019-02-17T01:44:50.261Z,72.80
2019-02-17T01:47:18.722Z,72.97
2019-02-17T01:49:47.316Z,72.70
2019-02-17T01:52:15.815Z,72.70
2019-02-17T01:54:44.279Z,73.27
2019-02-17T01:57:12.854Z,72.94
2019-02-17T01:59:41.352Z,72.94
2019-02-17T02:02:09.819Z,73.38
2019-02-17T02:04:38.272Z,73.39
2019-02-17T02:07:06.756Z,73.38
2019-02-17T02:09:35.214Z,73.32
2019-02-17T02:12:03.747Z,73.29
2019-02-17T02:14:32.232Z,73.24
2019-02-17T02:17:00.689Z,73.22
2019-02-17T02:19:29.165Z,73.15
2019-02-17T02:21:57.671Z,73.04
2019-02-17T02:24:26.139Z,72.98
2019-02-17T02:26:54.595Z,72.91
2019-02-17T02:29:23.090Z,72.83
2019-02-17T02:31:51.558Z,72.73
2019-02-17T02:34:20.014Z,72.66
2019-02-17T02:36:48.531Z,72.56
2019-02-17T02:39:17.012Z,72.41
2019-02-17T02:41:45.473Z,72.29
2019-02-17T02:44:13.981Z,72.23
2019-02-17T02:46:42.439Z,72.18
2019-02-17T02:49:10.892Z,72.14
2019-02-17T02:51:39.375Z,72.04
2019-02-17T02:54:07.832Z,71.97
2019-02-17T02:56:36.301Z,71.87
2019-02-17T02:59:06.270Z,71.77
2019-02-17T03:01:34.731Z,71.70
2019-02-17T03:04:03.264Z,71.62
2019-02-17T03:06:39.563Z,71.58
2019-02-17T03:09:08.020Z,71.58
2019-02-17T03:11:36.491Z,71.48
2019-02-17T03:14:04.986Z,71.34
2019-02-17T03:16:33.460Z,71.26
2019-02-17T03:19:01.928Z,71.25
2019-02-17T03:21:30.419Z,71.19
2019-02-17T03:23:58.889Z,71.05
2019-02-17T03:26:27.373Z,70.91
2019-02-17T03:28:55.881Z,70.88
2019-02-17T03:31:24.351Z,70.80
2019-02-17T03:33:52.807Z,70.67
2019-02-17T03:36:21.312Z,70.35
2019-02-17T03:38:49.890Z,70.20
2019-02-17T03:41:18.328Z,70.26
2019-02-17T03:43:46.808Z,70.25
2019-02-17T03:46:15.272Z,70.31
2019-02-17T03:48:43.735Z,70.25
2019-02-17T03:51:12.391Z,70.21
2019-02-17T03:53:40.844Z,70.14
2019-02-17T03:56:09.314Z,69.94
2019-02-17T03:58:37.841Z,69.86
2019-02-17T04:01:07.270Z,69.84
2019-02-17T04:03:35.738Z,69.80
2019-02-17T04:06:04.242Z,69.76
2019-02-17T04:08:32.691Z,69.71
2019-02-17T04:11:01.175Z,69.79
2019-02-17T04:13:29.638Z,69.84
2019-02-17T04:15:58.105Z,69.91
2019-02-17T04:18:26.729Z,69.89
2019-02-17T04:20:55.232Z,69.98
2019-02-17T04:23:31.299Z,69.93
2019-02-17T04:25:55.049Z,69.99
2019-02-17T04:28:23.541Z,70.06
2019-02-17T04:30:52.010Z,70.03
2019-02-17T04:33:20.468Z,70.07
2019-02-17T04:35:48.997Z,70.08
2019-02-17T04:38:17.454Z,70.15
2019-02-17T04:40:45.945Z,70.21
2019-02-17T04:43:14.412Z,70.16
2019-02-17T04:45:42.872Z,70.12
2019-02-17T04:48:11.339Z,70.04
2019-02-17T04:50:39.833Z,69.97
2019-02-17T04:53:08.304Z,69.92
2019-02-17T04:55:36.752Z,69.95
2019-02-17T04:58:05.253Z,69.94
2019-02-17T05:00:40.293Z,70.04
2019-02-17T05:03:04.085Z,70.07
2019-02-17T05:05:32.591Z,70.02
2019-02-17T05:08:01.063Z,69.91
2019-02-17T05:10:29.531Z,69.79
2019-02-17T05:12:58.022Z,69.63
2019-02-17T05:15:26.504Z,69.52
2019-02-17T05:17:55.062Z,69.52
2019-02-17T05:20:23.527Z,69.52
2019-02-17T05:22:51.980Z,69.44
2019-02-17T05:25:20.431Z,69.40
2019-02-17T05:27:48.915Z,69.44
2019-02-17T05:30:17.374Z,69.48
2019-02-17T05:32:45.826Z,69.54
2019-02-17T05:35:14.330Z,69.63
2019-02-17T05:37:42.786Z,69.59
2019-02-17T05:40:11.284Z,69.56
2019-02-17T05:42:39.762Z,69.57
2019-02-17T05:45:08.296Z,69.65
2019-02-17T05:47:36.753Z,69.56
2019-02-17T05:50:06.515Z,69.55
2019-02-17T05:52:34.979Z,69.60
2019-02-17T05:55:03.429Z,69.62
2019-02-17T05:57:31.989Z,69.68
2019-02-17T06:00:00.744Z,69.69
2019-02-17T06:02:29.236Z,69.75
2019-02-17T06:04:59.083Z,69.83
2019-02-17T06:07:27.540Z,69.93
2019-02-17T06:09:56.010Z,69.88
2019-02-17T06:12:24.498Z,69.80
2019-02-17T06:14:52.965Z,69.79
2019-02-17T06:17:21.428Z,69.84
2019-02-17T06:19:49.926Z,69.88
2019-02-17T06:22:18.391Z,69.90
2019-02-17T06:24:46.854Z,70.01
2019-02-17T06:27:15.375Z,70.00
2019-02-17T06:29:43.827Z,69.95
2019-02-17T06:32:12.288Z,70.00
2019-02-17T06:34:40.779Z,70.10
2019-02-17T06:37:09.234Z,70.14
2019-02-17T06:39:37.693Z,70.20
2019-02-17T06:42:06.184Z,70.19
2019-02-17T06:44:34.674Z,70.20
2019-02-17T06:47:03.319Z,70.26
2019-02-17T06:49:31.817Z,70.20
2019-02-17T06:52:00.287Z,70.18
2019-02-17T06:54:28.737Z,70.21
2019-02-17T06:56:58.884Z,70.18
2019-02-17T06:59:27.340Z,70.21
2019-02-17T07:01:55.805Z,70.21
2019-02-17T07:04:26.921Z,70.08
2019-02-17T07:06:57.187Z,70.09
2019-02-17T07:09:25.667Z,70.21
2019-02-17T07:11:56.882Z,71.01
2019-02-17T07:14:24.370Z,71.66
2019-02-17T07:16:52.824Z,71.76
2019-02-17T07:19:21.311Z,71.30
2019-02-17T07:21:51.391Z,70.63
2019-02-17T07:24:19.845Z,70.20
2019-02-17T07:26:48.415Z,69.76
2019-02-17T07:29:21.152Z,69.62
2019-02-17T07:31:49.628Z,69.56
2019-02-17T07:34:19.455Z,69.51
2019-02-17T07:36:48.888Z,69.51
2019-02-17T07:39:19.504Z,69.54
2019-02-17T07:41:49.651Z,69.51
2019-02-17T07:44:25.117Z,69.52
2019-02-17T07:46:55.190Z,69.61
2019-02-17T07:49:23.667Z,69.74
2019-02-17T07:51:52.146Z,69.81
2019-02-17T07:54:20.661Z,69.83
2019-02-17T07:56:49.160Z,69.99
2019-02-17T07:59:17.620Z,70.04
2019-02-17T08:01:46.205Z,70.05
2019-02-17T08:04:16.784Z,69.96
2019-02-17T08:06:48.428Z,69.97
2019-02-17T08:09:17.169Z,69.93
2019-02-17T08:11:47.259Z,69.90
2019-02-17T08:14:16.739Z,69.99
2019-02-17T08:16:47.077Z,69.86
2019-02-17T08:19:16.383Z,69.75
2019-02-17T08:21:48.035Z,69.62
2019-02-17T08:24:29.656Z,69.56
2019-02-17T08:26:59.768Z,69.48
2019-02-17T08:29:30.748Z,69.36
2019-02-17T08:32:00.864Z,69.30
2019-02-17T08:34:29.334Z,69.37
2019-02-17T08:36:59.616Z,69.44
2019-02-17T08:39:28.962Z,69.50
2019-02-17T08:41:57.431Z,69.60
2019-02-17T08:44:25.961Z,69.67
2019-02-17T08:46:54.444Z,69.76
2019-02-17T08:49:22.908Z,69.68
2019-02-17T08:51:51.406Z,69.71
2019-02-17T08:54:19.888Z,69.79
2019-02-17T08:56:48.388Z,69.78
2019-02-17T08:59:16.879Z,69.69
2019-02-17T09:01:45.356Z,69.54
2019-02-17T09:04:13.837Z,69.57
2019-02-17T09:06:42.343Z,69.68
2019-02-17T09:09:10.864Z,69.58
2019-02-17T09:11:40.365Z,69.62
2019-02-17T09:14:08.896Z,69.64
2019-02-17T09:16:37.359Z,69.61
2019-02-17T09:19:05.830Z,69.66
2019-02-17T09:21:34.315Z,69.76
2019-02-17T09:24:02.945Z,69.88
2019-02-17T09:26:31.414Z,69.89
2019-02-17T09:28:59.901Z,70.10
2019-02-17T09:31:30.129Z,69.98
2019-02-17T09:33:58.602Z,70.06
2019-02-17T09:36:27.274Z,70.01
2019-02-17T09:38:55.750Z,69.96
2019-02-17T09:41:24.246Z,69.86
2019-02-17T09:43:52.729Z,69.69
2019-02-17T09:46:21.211Z,69.73
2019-02-17T09:48:49.788Z,69.75
2019-02-17T09:51:18.250Z,69.66
2019-02-17T09:53:47.018Z,69.47
2019-02-17T09:56:15.470Z,69.48
2019-02-17T09:58:43.940Z,69.43
2019-02-17T10:01:12.470Z,69.29
2019-02-17T10:03:40.961Z,69.09
2019-02-17T10:06:09.424Z,69.07
2019-02-17T10:08:37.882Z,69.12
2019-02-17T10:11:06.391Z,69.11
2019-02-17T10:13:34.957Z,69.06
2019-02-17T10:16:03.419Z,68.99
2019-02-17T10:18:31.924Z,68.92
2019-02-17T10:21:00.454Z,68.78
2019-02-17T10:23:28.929Z,68.71
2019-02-17T10:25:57.457Z,68.69
2019-02-17T10:28:25.893Z,68.76
2019-02-17T10:30:54.370Z,68.75
2019-02-17T10:33:22.879Z,68.71
2019-02-17T10:35:51.454Z,68.67
2019-02-17T10:38:19.919Z,68.58
2019-02-17T10:40:48.409Z,68.50
2019-02-17T10:43:16.871Z,68.44
2019-02-17T10:45:45.333Z,68.35
2019-02-17T10:48:13.898Z,68.17
2019-02-17T10:50:42.380Z,68.03
2019-02-17T10:53:11.199Z,67.91
2019-02-17T10:55:39.700Z,67.83
2019-02-17T10:58:08.160Z,67.66
2019-02-17T11:00:36.626Z,67.60
2019-02-17T11:03:07.466Z,67.58
2019-02-17T11:05:36.026Z,67.54
2019-02-17T11:08:04.483Z,67.49
2019-02-17T11:10:32.999Z,67.37
2019-02-17T11:13:01.469Z,67.35
2019-02-17T11:15:31.277Z,67.39
2019-02-17T11:17:59.775Z,67.37
2019-02-17T11:20:28.238Z,67.25
2019-02-17T11:22:56.695Z,67.11
2019-02-17T11:25:26.136Z,67.08
2019-02-17T11:27:54.593Z,66.89
2019-02-17T11:30:23.061Z,66.82
2019-02-17T11:32:58.060Z,66.78
2019-02-17T11:35:21.770Z,66.62
2019-02-17T11:37:50.254Z,66.51
2019-02-17T11:40:18.772Z,66.19
2019-02-17T11:42:47.240Z,66.14
2019-02-17T11:45:17.519Z,66.09
2019-02-17T11:47:46.017Z,65.90
2019-02-17T11:50:15.797Z,65.54
2019-02-17T11:52:44.520Z,65.42
2019-02-17T11:55:15.641Z,65.37
2019-02-17T11:57:44.383Z,65.26
2019-02-17T12:00:18.435Z,65.20
2019-02-17T12:02:46.960Z,65.26
2019-02-17T12:05:15.518Z,65.09
2019-02-17T12:07:44.002Z,65.03
2019-02-17T12:10:12.682Z,64.78
2019-02-17T12:12:41.194Z,64.55
2019-02-17T12:15:11.892Z,64.51
2019-02-17T12:17:40.517Z,64.48
2019-02-17T12:20:41.159Z,64.40
2019-02-17T12:23:11.307Z,64.36
2019-02-17T12:25:44.370Z,64.09
2019-02-17T12:28:14.502Z,63.93
2019-02-17T12:30:44.366Z,63.72
2019-02-17T12:33:19.191Z,63.53
2019-02-17T12:35:43.020Z,63.34
2019-02-17T12:38:11.536Z,63.32
2019-02-17T12:40:39.998Z,63.22
2019-02-17T12:43:08.474Z,63.19
2019-02-17T12:45:36.978Z,62.97
2019-02-17T12:48:05.458Z,62.88
2019-02-17T12:50:33.919Z,62.93
2019-02-17T12:53:02.449Z,62.95
2019-02-17T12:55:30.910Z,62.89
2019-02-17T12:57:59.368Z,62.95
2019-02-17T13:00:27.874Z,63.03
2019-02-17T13:02:56.326Z,63.10
2019-02-17T13:05:24.793Z,63.13
2019-02-17T13:07:53.298Z,63.17
2019-02-17T13:10:21.784Z,63.14
2019-02-17T13:12:50.258Z,63.24
2019-02-17T13:15:18.784Z,63.36
2019-02-17T13:17:47.235Z,63.42
2019-02-17T13:20:16.791Z,63.49
2019-02-17T13:22:45.323Z,63.35
2019-02-17T13:25:15.651Z,63.33
2019-02-17T13:27:44.118Z,63.41
2019-02-17T13:30:15.677Z,63.47
2019-02-17T13:32:44.147Z,63.56
2019-02-17T13:35:12.621Z,63.67
2019-02-17T13:37:41.168Z,63.54
2019-02-17T13:40:12.255Z,63.54
2019-02-17T13:42:40.714Z,63.58
2019-02-17T13:45:14.028Z,63.71
2019-02-17T13:47:42.538Z,63.80
2019-02-17T13:50:13.531Z,63.70
2019-02-17T13:52:42.028Z,63.65
2019-02-17T13:55:11.027Z,63.65
2019-02-17T13:57:39.505Z,63.68
2019-02-17T14:00:11.016Z,63.77
2019-02-17T14:02:39.483Z,63.78
2019-02-17T14:05:08.185Z,63.88
2019-02-17T14:07:36.713Z,63.99
2019-02-17T14:10:10.712Z,64.07
2019-02-17T14:12:50.446Z,64.13
2019-02-17T14:15:20.179Z,64.18
2019-02-17T14:17:48.643Z,64.26
2019-02-17T14:20:17.179Z,64.29
2019-02-17T14:22:45.857Z,64.36
2019-02-17T14:25:14.422Z,64.40
2019-02-17T14:27:42.890Z,64.50
2019-02-17T14:30:13.330Z,64.52
2019-02-17T14:32:41.809Z,64.53
2019-02-17T14:35:10.347Z,64.59
2019-02-17T14:37:38.895Z,64.64
2019-02-17T14:40:12.295Z,64.71
2019-02-17T14:42:40.753Z,64.72
2019-02-17T14:45:13.368Z,64.82
2019-02-17T14:47:41.841Z,64.99
2019-02-17T14:50:11.164Z,65.14
2019-02-17T14:52:39.683Z,65.38
2019-02-17T14:55:12.096Z,65.54
2019-02-17T14:57:40.557Z,65.58
2019-02-17T15:00:16.188Z,65.63
2019-02-17T15:02:44.654Z,65.74
2019-02-17T15:05:13.190Z,65.90
2019-02-17T15:07:41.700Z,66.05
2019-02-17T15:10:14.433Z,66.26
2019-02-17T15:12:42.916Z,66.44
2019-02-17T15:15:12.865Z,66.57
2019-02-17T15:17:41.335Z,66.70
2019-02-17T15:20:17.184Z,66.83
2019-02-17T15:22:45.703Z,66.97
2019-02-17T15:25:14.407Z,67.10
2019-02-17T15:27:42.893Z,67.24
2019-02-17T15:30:17.652Z,67.27
2019-02-17T15:32:45.633Z,67.32
2019-02-17T15:35:14.111Z,67.40
2019-02-17T15:37:42.611Z,67.54
2019-02-17T15:40:12.915Z,67.72
2019-02-17T15:42:43.051Z,67.98
2019-02-17T15:45:14.893Z,68.09
2019-02-17T15:47:43.452Z,68.30
2019-02-17T15:50:12.958Z,68.44
2019-02-17T15:52:41.468Z,68.69
2019-02-17T15:55:16.525Z,69.04
2019-02-17T15:57:44.993Z,69.35
2019-02-17T16:00:17.511Z,69.69
2019-02-17T16:02:45.974Z,69.99
2019-02-17T16:05:14.445Z,70.30
2019-02-17T16:07:44.404Z,70.58
2019-02-17T16:10:17.768Z,70.81
2019-02-17T16:12:46.241Z,70.95
2019-02-17T16:15:20.112Z,71.28
2019-02-17T16:17:48.586Z,71.59
2019-02-17T16:20:17.070Z,71.94
2019-02-17T16:22:45.579Z,72.10
2019-02-17T16:25:14.045Z,72.29
2019-02-17T16:27:42.767Z,72.63
2019-02-17T16:30:13.868Z,72.87
2019-02-17T16:32:42.416Z,73.23
2019-02-17T16:35:10.878Z,73.62
2019-02-17T16:37:39.369Z,73.99
2019-02-17T16:40:15.403Z,74.29
2019-02-17T16:42:43.909Z,74.51
2019-02-17T16:45:13.518Z,74.83
2019-02-17T16:47:42.146Z,75.05
2019-02-17T16:50:19.830Z,75.41
2019-02-17T16:52:48.293Z,75.54
2019-02-17T16:55:16.820Z,75.72
2019-02-17T16:57:45.419Z,76.03
2019-02-17T17:00:18.161Z,76.12
2019-02-17T17:02:46.612Z,76.39
2019-02-17T17:05:15.265Z,76.63
2019-02-17T17:07:43.821Z,76.91
2019-02-17T17:10:12.360Z,77.29
2019-02-17T17:12:41.031Z,77.50
2019-02-17T17:15:09.972Z,77.65
2019-02-17T17:17:38.504Z,78.04
2019-02-17T17:20:10.058Z,78.40
2019-02-17T17:22:38.526Z,78.54
2019-02-17T17:25:10.578Z,78.70
2019-02-17T17:27:41.322Z,79.06
2019-02-17T17:30:23.326Z,79.30
2019-02-17T17:32:51.754Z,79.44
2019-02-17T17:35:20.219Z,79.49
2019-02-17T17:37:48.683Z,79.67
2019-02-17T17:40:18.115Z,79.92
2019-02-17T17:42:47.242Z,80.04
2019-02-17T17:45:20.244Z,80.21
2019-02-17T17:47:52.851Z,80.44
2019-02-17T17:50:21.329Z,80.60
2019-02-17T17:52:49.882Z,80.78
2019-02-17T17:55:18.390Z,80.95
2019-02-17T17:57:46.845Z,81.04
2019-02-17T18:00:18.376Z,81.03
2019-02-17T18:02:46.899Z,81.27
2019-02-17T18:05:15.418Z,81.60
2019-02-17T18:07:43.942Z,81.68
2019-02-17T18:10:16.270Z,81.79
2019-02-17T18:12:44.834Z,81.69
2019-02-17T18:15:18.577Z,81.85
2019-02-17T18:17:53.897Z,82.02
2019-02-17T18:20:17.322Z,82.31
2019-02-17T18:22:45.796Z,82.60
2019-02-17T18:25:14.910Z,82.73
2019-02-17T18:27:43.383Z,82.74
2019-02-17T18:30:19.798Z,82.81
2019-02-17T18:32:48.255Z,83.03
2019-02-17T18:35:20.308Z,83.06
2019-02-17T18:37:51.286Z,83.17
2019-02-17T18:40:30.611Z,83.17
2019-02-17T18:42:54.819Z,83.09
2019-02-17T18:45:23.283Z,83.11
2019-02-17T18:47:51.923Z,83.29
2019-02-17T18:50:20.488Z,83.22
2019-02-17T18:52:49.100Z,83.23
2019-02-17T18:55:17.552Z,83.30
2019-02-17T18:57:50.327Z,83.42
2019-02-17T19:00:23.683Z,83.46
2019-02-17T19:02:52.261Z,83.55
2019-02-17T19:05:31.053Z,83.55
2019-02-17T19:07:50.916Z,83.52
2019-02-17T19:10:19.502Z,83.53
2019-02-17T19:12:47.955Z,83.63
2019-02-17T19:15:19.744Z,83.80
2019-02-17T19:17:48.300Z,83.83
2019-02-17T19:20:19.749Z,83.87
2019-02-17T19:22:48.221Z,83.94
2019-02-17T19:25:16.711Z,84.11
2019-02-17T19:27:45.160Z,84.16
2019-02-17T19:30:15.371Z,84.36
2019-02-17T19:32:43.928Z,84.62
2019-02-17T19:35:14.424Z,84.97
2019-02-17T19:37:42.895Z,84.82
2019-02-17T19:40:13.357Z,84.78
2019-02-17T19:42:41.804Z,84.66
2019-02-17T19:45:17.313Z,84.90
2019-02-17T19:47:45.808Z,84.88
2019-02-17T19:50:15.282Z,84.82
2019-02-17T19:52:43.759Z,85.06
2019-02-17T19:55:14.274Z,85.60
2019-02-17T19:57:42.950Z,85.59
2019-02-17T20:00:14.539Z,85.59
2019-02-17T20:02:59.824Z,85.54
2019-02-17T20:05:29.931Z,85.33
2019-02-17T20:07:58.391Z,85.45
2019-02-17T20:10:26.870Z,85.70
2019-02-17T20:12:55.332Z,85.90
2019-02-17T20:15:25.434Z,86.32
2019-02-17T20:17:54.227Z,86.64
2019-02-17T20:20:22.688Z,87.21
2019-02-17T20:22:51.148Z,87.51
2019-02-17T20:25:19.667Z,87.90
2019-02-17T20:27:48.120Z,88.21
2019-02-17T20:30:16.599Z,88.13
2019-02-17T20:32:45.135Z,88.29
2019-02-17T20:35:13.613Z,88.32
2019-02-17T20:37:44.768Z,88.26
2019-02-17T20:40:15.184Z,88.39
2019-02-17T20:42:43.640Z,88.28
2019-02-17T20:45:12.491Z,88.34
2019-02-17T20:47:41.024Z,88.45
2019-02-17T20:50:12.234Z,88.56
2019-02-17T20:52:40.888Z,88.65
2019-02-17T20:55:11.155Z,88.56
2019-02-17T20:57:39.625Z,88.80
2019-02-17T21:00:22.727Z,88.78
2019-02-17T21:02:54.504Z,88.81
2019-02-17T21:05:22.974Z,88.79
2019-02-17T21:07:51.465Z,88.93
2019-02-17T21:10:19.928Z,88.89
2019-02-17T21:12:48.403Z,88.74
2019-02-17T21:15:20.666Z,88.97
2019-02-17T21:17:49.127Z,89.17
2019-02-17T21:20:18.865Z,89.33
2019-02-17T21:22:47.363Z,89.37
2019-02-17T21:25:15.826Z,89.49
2019-02-17T21:27:44.419Z,89.74
2019-02-17T21:30:20.362Z,89.93
2019-02-17T21:32:48.909Z,89.80
2019-02-17T21:35:17.742Z,89.65
2019-02-17T21:37:46.328Z,89.96
2019-02-17T21:40:15.139Z,89.86
2019-02-17T21:42:43.612Z,89.73
2019-02-17T21:45:16.066Z,89.90
2019-02-17T21:47:44.560Z,89.41
2019-02-17T21:50:15.448Z,89.41
2019-02-17T21:52:45.350Z,89.66
2019-02-17T21:55:17.138Z,89.46
2019-02-17T21:57:47.272Z,89.33
2019-02-17T22:00:20.673Z,89.10
2019-02-17T22:02:49.146Z,89.10
2019-02-17T22:05:17.692Z,89.39
2019-02-17T22:07:46.332Z,89.37
2019-02-17T22:10:17.010Z,89.33
2019-02-17T22:12:45.558Z,89.32
2019-02-17T22:15:19.697Z,89.17
2019-02-17T22:17:48.152Z,89.48
2019-02-17T22:20:16.618Z,88.78
2019-02-17T22:22:45.127Z,88.78
2019-02-17T22:25:15.223Z,88.36
2019-02-17T22:27:43.726Z,88.38
2019-02-17T22:30:15.561Z,88.38
2019-02-17T22:32:44.049Z,88.21
2019-02-17T22:35:12.567Z,88.15
2019-02-17T22:37:41.067Z,88.15
2019-02-17T22:40:14.200Z,87.86
2019-02-17T22:42:43.698Z,87.98
2019-02-17T22:45:12.930Z,88.00
2019-02-17T22:47:41.394Z,87.77
2019-02-17T22:50:16.332Z,87.77
2019-02-17T22:52:47.969Z,87.53
2019-02-17T22:55:16.433Z,87.54
2019-02-17T22:57:44.887Z,86.99
2019-02-17T23:00:26.432Z,86.99
2019-02-17T23:02:54.888Z,87.60
2019-02-17T23:05:23.349Z,87.60
2019-02-17T23:07:51.854Z,87.00
2019-02-17T23:10:20.314Z,87.13
2019-02-17T23:12:48.786Z,87.12
2019-02-17T23:15:17.344Z,87.11
2019-02-17T23:17:45.804Z,86.94
2019-02-17T23:20:14.273Z,86.94
2019-02-17T23:22:42.788Z,87.31
2019-02-17T23:25:11.325Z,87.31
2019-02-17T23:27:39.829Z,86.94
2019-02-17T23:30:10.682Z,87.48
2019-02-17T23:32:39.159Z,87.48
2019-02-17T23:35:09.187Z,87.40
2019-02-17T23:37:37.661Z,87.50
2019-02-17T23:40:09.299Z,87.58
2019-02-17T23:42:37.772Z,87.49
2019-02-17T23:45:12.421Z,87.49
2019-02-17T23:47:41.062Z,87.89
2019-02-17T23:50:13.742Z,88.01
2019-02-17T23:52:42.627Z,88.14
2019-02-17T23:55:11.939Z,88.45
2019-02-17T23:57:40.393Z,88.42
